NCAR-RAP Real-Time Weather Data

Output produced by METARs form (21 July 2019  13:48 UTC)
found at http://weather.rap.ucar.edu/surface/
 
 
CYED 211300Z AUTO 00000KT 5SM CLR 13/13 A3018 RMK SLP225
CYED 211228Z AUTO 19002KT 3SM CLR 11/11 A3018
CYED 211217Z AUTO 18002KT 1 1/4SM CLR 11/11 A3018
CYED 211201Z AUTO 20002KT 2 1/4SM FEW051 11/11 A3017
CYED 211200Z AUTO 20002KT 3SM FEW051 11/11 A3017 RMK SLP224
CYED 211144Z AUTO 21003KT 3SM FEW051 11/11 A3017
CYED 211121Z AUTO 20002KT 2 1/2SM FEW051 11/11 A3017
CYED 211100Z AUTO 22003KT 3SM FEW051 12/12 A3017 RMK SLP221
CYED 211053Z AUTO 22002KT 2 1/4SM FEW051 11/11 A3017
CYED 211039Z AUTO 19003KT 1SM FEW051 10/10 A3017
CYED 211036Z AUTO 18003KT 1/2SM FEW051 11/11 A3017
CYED 211024Z AUTO 19003KT 1/8SM FEW051 11/11 A3017
CYED 211019Z AUTO 18003KT 3/8SM FEW051 11/11 A3017
CYED 211009Z AUTO 22002KT 5/8SM FEW051 11/11 A3016
CYED 211008Z AUTO 21002KT 3/4SM FEW051 11/11 A3016
CYED 211005Z AUTO 21002KT 1 1/4SM CLR 11/11 A3016
CYED 211000Z AUTO 21002KT 2 1/2SM CLR 11/11 A3016 RMK SLP220
CYED 210959Z AUTO 21002KT 2 1/2SM CLR 11/11 A3016
CYED 210900Z AUTO 21002KT 3SM CLR 12/11 A3016 RMK SLP217
CYED 210845Z AUTO 20002KT 2 1/2SM CLR 12/12 A3015
CYED 210800Z AUTO 22004KT 8SM CLR 15/14 A3015 RMK SLP212
CYED 210700Z AUTO 22003KT 9SM CLR 14/13 A3014 RMK SLP212
CYED 210600Z AUTO 21004KT 9SM CLR 15/13 A3013 RMK SLP210
CYED 210500Z AUTO 00000KT 9SM CLR 14/13 A3013 RMK SLP209
CYED 210400Z AUTO 13002KT 9SM FEW053 16/14 A3012 RMK SLP205
CYED 210300Z AUTO 12002KT 9SM CLR 19/15 A3010 RMK SLP198
CYED 210200Z AUTO 09002KT 9SM FEW047 21/14 A3010 RMK SLP198
CYED 210100Z AUTO 00000KT 9SM CLR 22/13 A3010 RMK SLP196
CYED 210000Z AUTO 03004KT 9SM FEW045 FEW053 SCT098 22/13 A3010 RMK SLP197
CYED 202300Z AUTO 00000KT 9SM FEW045 22/13 A3009 RMK SLP194
CYED 202200Z AUTO 34003KT 9SM FEW041 FEW051 FEW056 22/12 A3009 RMK SLP194
CYED 202100Z AUTO 36004KT 9SM FEW028 FEW037 SCT045 SCT054 21/14 A3010 RMK SLP195
CYED 202000Z AUTO 01005KT 9SM CLR 21/16 A3010 RMK SLP198
CYED 201900Z AUTO 36005KT 9SM FEW018 19/15 A3011 RMK SLP201
CYED 201839Z AUTO 36006KT 9SM SCT016 SCT050 18/15 A3011
CYED 201830Z AUTO 36004KT 9SM BKN014 BKN050 18/15 A3011
CYED 201800Z AUTO 31004KT 9SM CLR 17/15 A3011 RMK SLP202
CYED 201733Z AUTO 32005KT 9SM FEW013 SCT015 18/15 A3010
CYED 201720Z AUTO 32005KT 9SM BKN013 18/15 A3010
CYED 201700Z AUTO 33003KT 9SM FEW015 17/14 A3009 RMK SLP197
CYED 201634Z AUTO 31004KT 9SM SCT010 16/14 A3009
CYED 201625Z AUTO 35005KT 9SM OVC010 OVC064 OVC094 16/14 A3009
CYED 201600Z AUTO 32003KT 9SM BKN008 OVC058 OVC094 15/14 A3009 RMK SLP197
CYED 201555Z AUTO 30003KT 9SM BKN008 BKN058 BKN094 15/14 A3009
CYED 201519Z AUTO 32004KT 9SM SCT008 BKN058 BKN099 15/13 A3008
CYED 201500Z AUTO 33005KT 9SM BKN008 BKN058 BKN099 15/13 A3008 RMK SLP193
CYED 201453Z AUTO 33005KT 9SM BKN008 BKN011 BKN099 15/14 A3008
CYED 201400Z AUTO 32005KT 9SM FEW007 13/12 A3006 RMK SLP188
CYED 201300Z AUTO 32005KT 9SM CLR 12/12 A3005 RMK SLP186
CYED 201200Z AUTO 30005KT 9SM CLR 12/12 A3004 RMK SLP182
CYED 201100Z AUTO 32005KT 9SM FEW072 BKN090 13/12 A3003 RMK SLP176
CYED 201000Z AUTO 33005KT 9SM BKN086 14/12 A3000 RMK SLP163
CYED 200900Z AUTO 32010G16KT 9SM OVC038 14/13 A2998 RMK SLP160
CYED 200846Z AUTO 32011G17KT 9SM BKN038 14/13 A2998
CYED 200830Z AUTO 33012G17KT 9SM BKN052 14/13 A2999
CYED 200817Z AUTO 33012KT 9SM BKN037 14/13 A2999
CYED 200800Z AUTO 33013KT 9SM FEW019 OVC025 14/13 A2998 RMK SLP161
CYED 200740Z AUTO 33010KT 5SM FEW019 OVC025 13/13 A2998
CYED 200727Z AUTO 32007KT 2 1/2SM OVC025 13/13 A2999 RMK VSBY VRBL 1.7V4.0
CYED 200712Z AUTO 34007KT 9SM OVC025 13/13 A2999
CYED 200700Z AUTO 32006KT 5SM OVC023 13/13 A2998 RMK SLP159
CYED 200625Z AUTO 25004KT 4SM OVC023 13/13 A2998
CYED 200600Z AUTO 26003KT 9SM OVC046 13/13 A2998 RMK SLP158
CYED 200559Z AUTO 26004KT 9SM OVC046 13/13 A2998
CYED 200550Z AUTO 00000KT 5SM OVC046 13/13 A2998
CYED 200525Z AUTO 28004KT 7SM OVC059 OVC095 13/13 A2997
CYED 200506Z AUTO 26004KT 9SM FEW005 BKN025 13/13 A2995
CYED 200500Z AUTO 25006KT 9SM FEW005 FEW008 OVC025 13/13 A2995 RMK SLP150
CYED 200457Z AUTO 26006KT 9SM SCT007 OVC025 OVC096 13/13 A2995
CYED 200446Z AUTO 26004KT 6SM BKN005 OVC019 13/13 A2995
CYED 200445Z AUTO 26006KT 6SM SCT005 OVC019 13/13 A2995
CYED 200441Z AUTO 26006G16KT 5SM BKN006 OVC019 13/13 A2995
CYED 200402Z AUTO 27008KT 3SM OVC019 13/13 A2993
CYED 200400Z AUTO 27008KT 3SM VV008 13/13 A2993 RMK SLP145
CYED 200357Z AUTO 27007KT 3SM VV008 13/13 A2993
CYED 200342Z AUTO 27006KT 1 5/8SM VV006 14/13 A2994
CYED 200331Z AUTO 27005KT 3/4SM VV006 14/13 A2995
CYED 200315Z AUTO 23004KT 1 1/4SM VV005 14/13 A2995
CYED 200312Z AUTO 25005KT 1 1/2SM VV005 14/13 A2995
CYED 200304Z AUTO 23003KT 3/4SM VV005 14/13 A2995
CYED 200301Z AUTO 00000KT 1 1/4SM VV005 15/13 A2996 RMK VSBY VRBL 0.4V9.+
CYED 200300Z AUTO 00000KT 1 1/2SM OVC007 OVC048 OVC060 OVC083 15/13 A2996 RMK VSBY VRBL 0.4V9.+ PRESRR SLP154
CYED 200259Z AUTO 13003KT 2 1/4SM SCT024 BKN048 OVC060 OVC083 15/13 A2996 RMK VSBY VRBL 0.5V9.+
CYED 200252Z AUTO 12005KT 9SM FEW024 SCT048 BKN060 OVC083 15/13 A2995
CYED 200227Z AUTO 17012KT 9SM FEW065 BKN077 OVC095 15/13 A2991
CYED 200200Z AUTO 27007KT 9SM BKN082 15/13 A2986 RMK SLP123
CYED 200100Z AUTO 26006KT 9SM FEW071 15/13 A2983 RMK SLP112
CYED 200000Z AUTO 33005KT 9SM FEW041 FEW075 FEW092 15/13 A2980 RMK SLP100
CYED 192337Z AUTO 35007KT 9SM FEW017 SCT073 SCT092 BKN099 14/13 A2980
CYED 192332Z AUTO 35010KT 9SM BKN012 BKN073 BKN079 14/13 A2979
CYED 192311Z AUTO 01014G21KT 5SM BKN012 OVC073 OVC090 14/13 A2978
CYED 192302Z AUTO 03016G28KT 9SM BKN017 BKN063 BKN090 BKN096 16/14 A2978
CYED 192300Z AUTO 03019G28KT 9SM FEW031 SCT036 BKN063 BKN090 17/14 A2978 RMK SLP093
CYED 192200Z AUTO 36008KT 9SM FEW058 FEW071 FEW081 FEW096 19/15 A2976 RMK SLP081
CYED 192118Z AUTO 01007KT 9SM FEW018 BKN032 OVC050 OVC081 19/17 A2974
CYED 192107Z AUTO 36007KT 3SM BKN018 BKN067 OVC081 17/15 A2974
CYED 192100Z AUTO 01002KT 7SM VV006 16/14 A2974 RMK SLP079
CYED 192052Z AUTO 27004KT 8SM BKN006 BKN067 16/15 A2973
CYED 192030Z AUTO 01005KT 9SM BKN025 BKN050 BKN065 17/15 A2973
CYED 192027Z AUTO 34004KT 9SM BKN003 BKN048 BKN057 17/15 A2973
CYED 192016Z AUTO 01002KT 9SM VV003 16/14 A2973
CYED 192009Z AUTO 14005G15KT 4SM VV003 15/11 A2973
CYED 192000Z AUTO 32014KT 1 1/4SM VV003 16/13 A2972 RMK SLP071
CYED 191959Z AUTO 32014KT 1 1/4SM VV003 16/14 A2972
CYED 191958Z AUTO 32011G16KT 2 1/4SM VV011 17/15 A2972
CYED 191954Z AUTO 32008KT 9SM BKN011 BKN050 BKN086 18/15 A2972
CYED 191951Z AUTO 33006KT 9SM FEW024 SCT050 SCT086 19/15 A2973
CYED 191925Z AUTO 32002KT 9SM SCT021 SCT087 19/15 A2973
CYED 191900Z AUTO 36007KT 9SM BKN017 BKN057 19/16 A2973 RMK SLP071
CYED 191816Z 36008KT 8SM BKN012 OVC021 17/14 A2972 RMK SC6SC2 DA3436FT LAST STFD OBS/NEXT 221400 UTC BR CIG RAG SLP071
CYED 191800Z 34007KT 8SM BKN012 OVC049 16/14 A2972 RMK SC6SC2 DA3400FT BR CIG RAG SLP070
CYED 191700Z 35004KT 7SM BKN010 OVC012 15/14 A2970 RMK SC6SC2 DA3288FT BR CIG RAG SLP063
CYED 191600Z 30004KT 6SM BR BKN004 OVC013 14/13 A2969 RMK SC6SC2 DA3097FT CIGS RAG SLP060
CYED 191542Z 29003KT 6SM BR BKN003 OVC013 13/13 A2968 RMK SC5SC3 DA3030FT SLP059
CYED 191500Z 28006KT 4SM BR FEW003 BKN009 OVC054 12/12 A2967 RMK SF2SC3SC2 DA2901FT VIS VRB 3-5 SLP054
CYED 191454Z 29007KT 3SM BR FEW003 OVC011 12/12 A2967 RMK SF2SC6 DA2888FT VIS VRB 2 1/4-4 CIG VRB 8-14 SLP054
CYED 191439Z 29003KT 2SM -SHRA BR FEW004 OVC011 11/11 A2967 RMK SF2SC6 DA2823FT VIS VRB 1 1/2-2 1/2 CIG VRB 8-14 CVCTV CLD EMBD SLP054
CYED 191410Z 29004KT 1 1/2SM -SHRA BR OVC003 11/11 A2967 RMK SC8 DA2810FT VIS VRB 1-2 CIG VRB 2-4 CVCTV CLD EMBD SLP054
CYED 191400Z 29005KT 4SM -SHRA BR OVC004 11/11 A2966 RMK SC8 DA2821FT PCPN VRY LGT FST STFD OBS SLP052
CYED 191350Z AUTO 28005KT 9SM OVC004 11/11 A2965
CYED 191328Z AUTO 29006KT 9SM OVC005 11/11 A2964
CYED 191312Z AUTO 29007KT 9SM OVC005 11/11 A2964
CYED 191309Z AUTO 28007KT 9SM OVC005 11/11 A2964
CYED 191300Z AUTO 28007KT 9SM OVC004 11/11 A2964 RMK SLP044
CYED 191253Z AUTO 28008KT 9SM OVC004 11/11 A2964
CYED 191203Z AUTO 28009KT 7SM OVC006 OVC037 11/11 A2963
CYED 191200Z AUTO 28009G15KT 5SM OVC006 OVC037 11/11 A2963 RMK SLP040
CYED 191100Z AUTO 28010KT 6SM VV007 11/11 A2962 RMK SLP037
CYED 191036Z AUTO 28008G19KT 3SM VV009 11/11 A2962
CYED 191030Z AUTO 28012G19KT 6SM OVC010 11/11 A2961
CYED 191002Z AUTO 28011G19KT 9SM BKN009 OVC025 11/11 A2961
CYED 191000Z AUTO 28013G21KT 9SM BKN010 OVC025 11/11 A2961 RMK SLP034
CYED 190927Z AUTO 28011G16KT 6SM OVC009 11/11 A2961
CYED 190916Z AUTO 28010G19KT 5SM VV010 11/11 A2961
CYED 190900Z AUTO 28011G18KT 5SM VV008 11/11 A2961 RMK SLP035
CYED 190852Z AUTO 29011G18KT 3SM VV009 11/11 A2961
CYED 190849Z AUTO 28012G19KT 3SM VV013 11/11 A2961
CYED 190848Z AUTO 29013G19KT 3SM OVC015 OVC047 OVC060 11/11 A2961
CYED 190833Z AUTO 28015G25KT 3SM OVC026 OVC060 OVC071 11/11 A2960
CYED 190800Z AUTO 28012G20KT 3SM FEW012 OVC024 OVC071 11/11 A2961 RMK SLP033
CYED 190729Z AUTO 29011G17KT 4SM OVC022 11/11 A2961
CYED 190700Z AUTO 28010G16KT 6SM OVC027 12/11 A2961 RMK SLP035
CYED 190643Z AUTO 29010G17KT 4SM FEW012 FEW016 OVC027 12/11 A2961
CYED 190618Z AUTO 29011G17KT 2 1/2SM OVC033 12/11 A2961
CYED 190600Z AUTO 29009G16KT 6SM OVC038 12/11 A2961 RMK SLP037
CYED 190523Z AUTO 29010G15KT 9SM FEW044 OVC058 13/10 A2961
CYED 190505Z AUTO 30010G17KT 9SM OVC047 13/10 A2961
CYED 190500Z AUTO 30010G17KT 9SM OVC047 13/10 A2961 RMK SLP033
CYED 190445Z AUTO 31009G17KT 9SM FEW049 OVC071 13/10 A2960
CYED 190400Z AUTO 30008G15KT 9SM BKN034 BKN071 14/10 A2960 RMK SLP029
CYED 190300Z AUTO 30006KT 9SM OVC045 15/09 A2958 RMK SLP022
CYED 190200Z AUTO 31005KT 9SM OVC043 15/11 A2957 RMK SLP020
 
CYEG 211300Z 15003KT 6SM BR FEW040 FEW120 SCT260 12/12 A3019 RMK SC2AC1CI1 AC TR SLP230
CYEG 211220Z 17004KT 3SM BR FEW120 FEW260 08/08 A3019 RMK AC1CI1 CI TR SLP230
CYEG 211207Z 17003KT 3/4SM R02/P6000FT/D R12/P6000FT/N BR FEW260 08/08 A3018 RMK CI2 SLP229
CYEG 211200Z 15003KT 1/4SM R02/P6000FT/D R12/P6000FT/D FG FEW260 08/08 A3018 RMK CI2 SLP229
CYEG 211120Z 19002KT 1/4SM R02/P6000FT/D R12/1800FT/N FG FEW260 07/07 A3018 RMK CI2 SLP229
CYEG 211116Z 18002KT 3/8SM R02/P6000FT/N R12/5000VP6000FT/U FG FEW260 07/07 A3018 RMK CI2 SLP229
CYEG 211100Z 14003KT 1/2SM R02/P6000FT/N R12/P6000FT/N FG FEW260 08/07 A3018 RMK CI2 SLP228
CYEG 211000Z 00000KT 1/2SM R02/P6000FT/N R12/P6000FT/D FG SCT260 09/09 A3017 RMK CI3 SLP226
CYEG 210922Z 18002KT 3/8SM R02/P6000FT/N R12/P6000FT/U FG SCT260 09/08 A3016 RMK CI3 SLP223
CYEG 210909Z 13004KT 3SM BR SCT260 09/09 A3016 RMK CI3 SLP223
CYEG 210900Z 14004KT 5/8SM R02/P6000FT/N R12/P6000FT/N FG SCT260 10/09 A3016 RMK CI4 VSB 2 NE+W SLP222
CYEG 210843Z 15003KT 3/4SM R02/P6000FT/N R12/P6000FT/N BR SCT260 11/11 A3016 RMK CI4 VSB 2 W SLP220
CYEG 210836Z 18003KT 1SM R02/P6000FT/N R12/P6000FT/U BR SCT260 11/11 A3016 RMK CI4 VSB 2 W SLP220
CYEG 210800Z 20006KT 10SM MIFG SCT260 10/09 A3015 RMK CI3 BR SLP219
CYEG 210719Z 20004KT 10SM MIFG SCT260 10/10 A3015 RMK CI3 BR SLP219
CYEG 210700Z 20003KT 20SM SCT260 11/11 A3015 RMK CI3 SLP216
CYEG 210600Z 21002KT 15SM MIFG FEW260 11/11 A3015 RMK CI1 SLP217
CYEG 210500Z 15005KT 20SM FEW260 12/11 A3014 RMK CI1 SLP216 DENSITY ALT 2400FT
CYEG 210400Z 20004KT 20SM FEW050 FEW260 15/14 A3013 RMK CF1CI1 CF TR SLP211 DENSITY ALT 2700FT
CYEG 210300Z 19003KT 20SM FEW055 FEW260 18/15 A3011 RMK SC1CI1 TCU TOPS S SLP204 DENSITY ALT 3100FT
CYEG 210200Z 19004KT 20SM FEW055TCU SCT260 20/16 A3011 RMK TCU2CI1 SLP202 DENSITY ALT 3300FT
CYEG 210100Z 21006KT 20SM SCT040TCU SCT080 BKN250 21/16 A3010 RMK TCU3AC1CI2 AC TR SLP201 DENSITY ALT 3400FT
CYEG 210000Z VRB02KT 20SM BKN040TCU BKN250 22/15 A3010 RMK TCU5CI1 VIA CYWG SLP200 DENSITY ALT 3600FT
CYEG 202300Z CCA 00000KT 20SM BKN030CB BKN250 22/13 A3009 RMK CB5CI1 SLP196 DENSITY ALT 3600FT
CYEG 202200Z 01007KT 330V060 20SM FEW020 BKN033TCU 21/15 A3010 RMK CU1TCU6 CU TR SLP199 DENSITY ALT 3500FT
CYEG 202100Z 36005KT 310V030 20SM BKN030TCU 21/16 A3010 RMK TCU6 SLP200 DENSITY ALT 3500FT
CYEG 202000Z 34005KT 20SM BKN040TCU 20/15 A3011 RMK TCU6 SLP203 DENSITY ALT 3300FT
CYEG 201900Z 34006KT 270V030 20SM BKN020TCU 19/16 A3011 RMK TCU7 SLP203 DENSITY ALT 3300FT
CYEG 201744Z 30004KT 20SM BKN018 18/15 A3011 RMK SC7 SLP204 DENSITY ALT 3100FT
CYEG 201700Z 33005KT 260V360 20SM BKN013 17/14 A3010 RMK SC7 SLP203 DENSITY ALT 2900FT
CYEG 201600Z 34006KT 20SM BKN010 15/13 A3010 RMK SC7 CIG RAG SLP201 DENSITY ALT 2800FT
CYEG 201500Z 32008KT 20SM BKN010 BKN080 14/13 A3009 RMK SC7AC1 AC TR CIG RAG SLP197 DENSITY ALT 2700FT
CYEG 201400Z 30007KT 12SM FEW080 SCT100 BKN250 13/12 A3007 RMK ACC1AC3CI4 ACC TR SLP194 DENSITY ALT 2500FT
CYEG 201300Z 29006KT 12SM FEW080 BKN090 BKN250 12/11 A3007 RMK ACC2AC3CI1 SLP193 DENSITY ALT 2400FT
CYEG 201100Z 28005KT 15SM FEW080 SCT100 SCT250 10/10 A3004 RMK AC1AC2CI1 SLP183
CYEG 201000Z 26005KT 20SM FEW090 SCT130 BKN250 10/10 A3002 RMK AC2AC1CI2 SLP175
CYEG 200900Z 27005KT 15SM FEW110 SCT160 BKN240 10/10 A3001 RMK AC2AC2CI2 SLP169
CYEG 200800Z 31005KT 20SM FEW008 FEW090 SCT130 BKN180 BKN230 12/11 A2999 RMK SF1AC1AC2AC1CI1 SLP164 DENSITY ALT 2500FT
CYEG 200737Z 30005KT 20SM FEW007 SCT090 SCT140 BKN180 BKN230 12/11 A2999 RMK SF1AC2AC1AC1CI1 CB TOP OCNL LTNG DIST N SLP166 DENSITY ALT 2500FT
CYEG 200700Z 30007KT 20SM SCT120 BKN180 BKN230 12/12 A2998 RMK AC3AC2CI2 SLP163 DENSITY ALT 2600FT
CYEG 200646Z 31005KT 20SM FEW010 SCT110 BKN170 BKN230 12/12 A2998 RMK SF1AC2AC2CI2 SLP165 DENSITY ALT 2600FT
CYEG 200624Z 28007KT 20SM -SHRA FEW010 BKN080 BKN120 OVC220 13/12 A2997 RMK SF2AC4AC1CI1 SLP162 DENSITY ALT 2700FT
CYEG 200548Z VRB02KT 20SM -SHRA BKN009 OVC070 13/12 A2999 RMK SF5AC3 CVCTV CLD EMBD SLP167 DENSITY ALT 2700FT
CYEG 200530Z VRB07KT 20SM VCSH BKN009 OVC070 13/12 A2999 RMK SF5AC3 SH E QUADS PRESRR SLP167 DENSITY ALT 2700FT
CYEG 200500Z 32009KT 20SM BKN070 BKN090 OVC180 13/12 A2996 RMK AC5AC2AC1 SH DIST SW-N + NE-SE CVCTV CLD EMBD SLP156 DENSITY ALT 2700FT
CYEG 200449Z 31010KT 20SM BKN070 BKN090 OVC200 13/12 A2995 RMK AC5AC2CI1 SH DIST SW-N + SE CVCTV CLD EMBD SLP154 DENSITY ALT 2700FT
CYEG 200400Z 30011G18KT 15SM -SHRA FEW020 BKN065 BKN080 OVC120 14/13 A2995 RMK SC2SC3AC2AC1 CVCTV CLD EMBD SLP152 DENSITY ALT 2800FT
CYEG 200357Z 30013KT 10SM -SHRA FEW020 BKN065 OVC080 14/13 A2995 RMK SC2SC4AC2 CVCTV CLD EMBD SLP153 DENSITY ALT 2800FT
CYEG 200334Z 30012KT 4SM SHRA FEW015 BKN060CB OVC080 14/13 A2995 RMK SC2CB5AC1 SLP154 DENSITY ALT 2800FT
CYEG 200314Z 30006KT 15SM -SHRA FEW015 BKN060CB OVC080 14/13 A2995 RMK SC2CB4AC2 HVYR SH NE VIS LWR PRESRR SLP153 DENSITY ALT 2900FT
CYEG 200300Z 28007KT 15SM VCSH FEW015 BKN060CB BKN080 OVC120 14/13 A2992 RMK SC2CB3AC2AC1 SH E QUADS + DIST SW QUAD SLP145 DENSITY ALT 2900FT
CYEG 200256Z 28006KT 15SM FEW015 BKN060CB BKN080 OVC120 14/13 A2992 RMK SC1CB4AC2AC1 SH DIST N-S-W SLP145 DENSITY ALT 2900FT
CYEG 200241Z 26003KT 190V270 15SM TS FEW015 BKN060CB BKN080 OVC120 14/13 A2992 RMK SC2CB4AC1AC1 CB SW QUAD MOVG WWD OCNL LTGIC SH DIST N-S-W SLP144 DENSITY ALT 2900FT
CYEG 200215Z VRB06G20KT 15SM -TSRA SCT012 BKN060CB BKN220 14/13 A2992 RMK SC4CB3CI1 CI TR CB HVY SH SE-SW MOVG WWD OCNL LTGICCG PRESRR SLP145 DENSITY ALT 2900FT
CYEG 200209Z VRB14KT 15SM TS FEW010 BKN060CB BKN220 15/13 A2992 RMK SC2CB4CI1 WSHFT 0205 CB SH E-SW SHELF CLD OVHD MOVG WWD OCNL LTGICCG PRESRR SLP143 DENSITY ALT 2900FT
CYEG 200200Z 28008KT 15SM TS FEW020 BKN065CB BKN080 BKN220 15/13 A2987 RMK SC1CB4AC1CI1 CB SH + SHELF CLD NE - S MOVG WWD OCNL LTGICCG SLP126 DENSITY ALT 3000FT
CYEG 200147Z 27009KT 15SM TS FEW020 SCT065CB BKN080 BKN120 BKN220 14/13 A2987 RMK SC1CB3AC1AC1CI1 CB SHELF CLD NE - S MOVG WWD OCNL LTGIC SLP125 DENSITY ALT 3000FT
CYEG 200100Z 27008KT 15SM FEW025 SCT064CB BKN120 BKN220 14/13 A2985 RMK SC1CB2AC3CI1 CB W MOVG SW SLP119 DENSITY ALT 2900FT
CYEG 200054Z CCA 27008KT 15SM FEW025 SCT064CB BKN120 BKN220 14/13 A2985 RMK SC1CB3AC3CI1 CI TR CB W MOVG SW SLP120 DENSITY ALT 2900FT
CYEG 200037Z 27009KT 15SM -SHRA FEW023 SCT058CB BKN086 BKN220 14/13 A2985 RMK SC1CB3AC2CI1 CB SW-NW MOVG SW SLP121 DENSITY ALT 2900FT
CYEG 200000Z CCA 27006KT 260V360 5SM -TSRA FEW024 OVC053TCU 13/12 A2984 RMK SC1TCU7 CB CVHD MOVG SW OCNL LTGCGICCC /R20/ PRESFR SLP119 DENSITY ALT 2800FT
CYEG 192340Z CCB VRB02KT 6SM TSRA FEW022 BKN045CB OVC140 13/12 A2984 RMK SC1CB6AC1 CB CVHD MOVG SW OCNL LTGCGICCC /R10/ PRESRR SLP118 DENSITY ALT 2800FT
CYEG 192322Z 20018G33KT 120V210 5SM R02/5000FT/N R12/2800V4500FT/N -TSRA FEW016 OVC028CB 13/12 A2980 RMK CF1CB7 CB CVHD MOVG SW FRQ LTGCGIC SLP103 DENSITY ALT 2900FT
CYEG 192316Z 13020G26KT 120V220 2SM R02/3500VP6000FT/D R12/2600FT/N +TSRA OVC023CB 14/13 A2982 RMK CB8 CB CVHD MOVG SW OCNL LTGCGIC PRESRR SLP109 DENSITY ALT 3000FT
CYEG 192314Z 14016G23KT 130V240 7SM TSRA BKN025CB BKN240 15/13 A2981 RMK CB7CI1 CI TR CB NE-SW MOVG SW OCNL LTGCGIC PRESRR SLP105 DENSITY ALT 3100FT
CYEG 192300Z 22008G15KT 15SM -TSRA BKN030CB BKN083 16/13 A2978 RMK CB6AC1 CB NE-SW MOVG SW OCNL LTGCGIC SLP096 DENSITY ALT 3200FT
CYEG 192200Z CCA 34011KT 15SM TS BKN038CB BKN160 BKN240 17/14 A2976 RMK CB5AC1CI1 CB NW+S MOVG SW OCNL LTGICCG S SH S SLP086 DENSITY ALT 3400FT
CYEG 192154Z 33009G15KT 15SM TS BKN038CB BKN160 BKN240 18/14 A2976 RMK CB5AC1CI1 CB NW+S MOVG SW OCNL LTGICCG S PRESRR SLP085 DENSITY ALT 3500FT
CYEG 192134Z CCA 34008KT 15SM -TSRA BKN044CB BKN160 BKN240 19/15 A2973 RMK CB6AC1CI1 AC TR CB N+SE MOVG SW SLP075 DENSITY ALT 3600FT
CYEG 192121Z CCA 33009KT 20SM TS BKN032CB BKN160 BKN240 19/14 A2974 RMK CB6AC1CI1 AC TR CB N SH SE HAIL REPORTED SPRUCE GROVE SLP076 DENSITY ALT 3700FT
CYEG 192100Z 30005KT 280V350 20SM BKN028TCU BKN040 BKN160 BKN240 19/16 A2974 RMK TCU5SC1AC1CI1 AC TR SLP078 DENSITY ALT 3600FT
CYEG 192000Z 31009KT 20SM FEW008 SCT020 OVC042 17/15 A2974 RMK ST1SC3SC4 SLP079 DENSITY ALT 3400FT
CYEG 191919Z 31009KT 20SM SCT008 BKN018 OVC082 16/14 A2974 RMK SF3SC4AC1 SLP080 DENSITY ALT 3300FT
CYEG 191900Z 32009KT 20SM BKN008 OVC012 15/14 A2974 RMK SF7SC1 CIG RAG SLP079 DENSITY ALT 3200FT
CYEG 191800Z 30012KT 15SM BKN005 OVC011 13/12 A2972 RMK SF7SC1 CIG RAG SLP075 DENSITY ALT 2900FT
CYEG 191750Z 30010KT 12SM BKN005 OVC012 13/12 A2972 RMK SF7SC1 CIG RAG BR SLP076 DENSITY ALT 2900FT
CYEG 191713Z 29009KT 3SM -RA BKN006 OVC012 11/11 A2972 RMK SF7SC1 CIG RAG BR SLP076 DENSITY ALT 2800FT
CYEG 191702Z CCA 29008KT 2 1/2SM RA BR OVC008 11/11 A2972 RMK SC8 CIG RAG SLP075 DENSITY ALT 2800FT
CYEG 191700Z 28006KT 4SM -RA BKN008 OVC011 12/11 A2972 RMK SF7SC1 CIG RAG BR SLP074 DENSITY ALT 2800FT
CYEG 191600Z 29009KT 12SM -RA BKN008 OVC012 11/11 A2970 RMK SF6SC2 CIG RAG BR SLP068 DENSITY ALT 2800FT
CYEG 191500Z 28010KT 10SM -RA BKN009 OVC014 11/10 A2969 RMK SF5SC3 CIG RAG BR SLP065 DENSITY ALT 2700FT
CYEG 191438Z 28010KT 8SM -RA BKN007 OVC011 10/10 A2968 RMK SF6SC2 CIG RAG BR SLP062 DENSITY ALT 2700FT
CYEG 191417Z 29009G16KT 12SM -RA FEW004 BKN009 OVC012 10/10 A2968 RMK SF2SC5SC1 CIG RAG BR SLP060 DENSITY ALT 2700FT
CYEG 191408Z 28010G16KT 3SM -RA BR SCT011 OVC016 10/10 A2968 RMK SF3SC5 CIG RAG SLP060 DENSITY ALT 2700FT
CYEG 191400Z 28010KT 2SM -RA BR SCT006 OVC011 10/10 A2967 RMK SF4SC4 CIG RAG SLP059 DENSITY ALT 2700FT
CYEG 191356Z 28010G16KT 2 1/2SM -RA BR SCT004 OVC011 10/10 A2967 RMK SF4SC4 CIG RAG SLP060 DENSITY ALT 2700FT
CYEG 191339Z 28009G16KT 10SM -RA BKN009 OVC012 10/10 A2967 RMK SF5SC3 CIG RAG BR SLP057 DENSITY ALT 2700FT
CYEG 191300Z 28012KT 12SM -RA FEW009 BKN012 OVC018 11/09 A2966 RMK SF1SC5SC2 CIG RAG BR SLP055 DENSITY ALT 2700FT
CYEG 191200Z 27014KT 9SM -RA FEW007 BKN014 OVC020 10/09 A2965 RMK SF2SC4SC2 CIG RAG BR SLP053 DENSITY ALT 2700FT
CYEG 191100Z 27014KT 3SM -RA BR SCT007 BKN014 OVC020 10/10 A2965 RMK SF3SC2SC3 SLP052 DENSITY ALT 2700FT
CYEG 191051Z 28011G19KT 3SM -RA BR SCT008 BKN012 OVC020 10/10 A2965 RMK SF3SC3SC2 SLP052 DENSITY ALT 2700FT
CYEG 191024Z 28012G19KT 8SM -RA FEW005 SCT013 BKN020 OVC030 11/10 A2965 RMK SF1SC3SC3SC2 SF TR BR SLP051 DENSITY ALT 2800FT
CYEG 191000Z 28011G19KT 12SM -SHRA FEW005 BKN032 BKN056 OVC070 11/10 A2964 RMK SF1SC5SC2ACC1 SF TR SLP049 DENSITY ALT 2800FT
CYEG 190900Z 29015G23KT 12SM -SHRA FEW005 FEW020 SCT045 OVC073 11/09 A2964 RMK SF1SC2SC2ACC4 SF TR SLP050 DENSITY ALT 2800FT
CYEG 190849Z CCA 29017G28KT 12SM SHRA FEW005 FEW020 BKN045 BKN070 OVC110 11/10 A2964 RMK SF1SC2SC3ACC2AC1 SF TR SLP049 DENSITY ALT 2800FT
CYEG 190800Z 29016G22KT 15SM -SHRA FEW020 BKN060 OVC070 11/10 A2964 RMK SC1SC5ACC2 SLP049 DENSITY ALT 2900FT
CYEG 190700Z 30011G20KT 15SM -SHRA FEW030 BKN063 OVC072 12/09 A2964 RMK SC1SC5ACC3 SC TR SLP050 DENSITY ALT 2900FT
CYEG 190600Z 31012G23KT 20SM -SHRA FEW020 FEW045 BKN063 BKN080 OVC110 13/09 A2964 RMK SC1SC2SC4ACC1AC1 SC TR SLP047 DENSITY ALT 3100FT
CYEG 190527Z 29007KT 15SM -SHRA FEW020 FEW045 BKN067 OVC110 13/09 A2963 RMK SC1SC2ACC5AC1 SC TR SLP046 DENSITY ALT 3000FT
CYEG 190500Z 29006KT 20SM FEW020 FEW040 BKN067 OVC110 13/09 A2963 RMK SC1SC2ACC5AC1 SC TR SLP045 DENSITY ALT 3000FT
CYEG 190400Z 31010KT 20SM FEW020 FEW040 BKN072 BKN110 14/08 A2962 RMK CU1SC2ACC4AC1 CU TR SH SE SLP038 DENSITY ALT 3200FT
CYEG 190300Z 30007KT 20SM FEW020TCU SCT040 BKN071 BKN110 13/09 A2960 RMK TCU1SC3ACC3AC1 TCU TR SLP030 DENSITY ALT 3200FT
CYEG 190200Z 28005KT 20SM FEW020TCU BKN047 BKN070 BKN110 BKN250 14/12 A2959 RMK TCU1SC4ACC1AC1CI1 CI TR SLP027 DENSITY ALT 3300FT